Time;durP1;ratioP1;P1;durP2;ratioP2;P2;SDS_P1;SDS_P2;PMS_P1;PMS_P2;Temp;Humidity;BMP_temperature;BMP_pressure;BME280_temperature;BME280_humidity;BME280_pressure;Samples;Min_cycle;Max_cycle;Signal;HPM_P1;HPM_P2
2021/12/06 00:01:21;;;;;;;40.72;26.02;;;;;;;;;;5029425;28;20425;-73
2021/12/06 00:03:54;;;;;;;38.83;25.52;;;;;;;;;;5011383;28;21055;-72
2021/12/06 00:06:21;;;;;;;38.15;26.80;;;;;;;;;;5005501;28;20446;-72
2021/12/06 00:08:48;;;;;;;40.20;26.42;;;;;;;;;;5005162;28;20830;-72
2021/12/06 00:11:15;;;;;;;40.55;26.45;;;;;;;;;;5005870;28;20425;-73
2021/12/06 00:13:43;;;;;;;42.53;27.10;;;;;;;;;;4988713;28;20421;-73
2021/12/06 00:16:13;;;;;;;41.03;26.37;;;;;;;;;;5005939;28;20428;-73
2021/12/06 00:18:39;;;;;;;43.80;27.00;;;;;;;;;;5004969;28;20428;-72
2021/12/06 00:21:06;;;;;;;43.25;28.10;;;;;;;;;;5005911;28;20429;-72
2021/12/06 00:23:32;;;;;;;41.90;26.02;;;;;;;;;;5007022;28;20417;-73
2021/12/06 00:25:58;;;;;;;42.53;26.80;;;;;;;;;;4988005;28;20444;-72
2021/12/06 00:28:25;;;;;;;43.65;27.55;;;;;;;;;;5007195;28;20928;-72
2021/12/06 00:30:51;;;;;;;44.67;27.75;;;;;;;;;;5004705;28;20472;-72
2021/12/06 00:33:18;;;;;;;46.92;28.20;;;;;;;;;;5027603;28;20421;-72
2021/12/06 00:35:44;;;;;;;46.03;28.58;;;;;;;;;;5005074;28;20762;-72
2021/12/06 00:38:10;;;;;;;46.08;29.20;;;;;;;;;;5006609;28;20456;-72
2021/12/06 00:40:37;;;;;;;46.80;28.33;;;;;;;;;;5005447;28;20432;-72
2021/12/06 00:43:04;;;;;;;47.60;29.10;;;;;;;;;;5006667;28;20459;-72
2021/12/06 00:45:31;;;;;;;46.80;30.17;;;;;;;;;;5008059;28;20507;-72
2021/12/06 00:47:57;;;;;;;48.83;30.10;;;;;;;;;;5008011;28;20915;-72
2021/12/06 00:50:25;;;;;;;49.17;30.40;;;;;;;;;;5008211;28;20474;-72
2021/12/06 00:52:51;;;;;;;45.92;30.17;;;;;;;;;;5008953;28;20977;-72
2021/12/06 00:55:17;;;;;;;47.80;29.83;;;;;;;;;;5008351;28;20445;-71
2021/12/06 00:57:43;;;;;;;47.95;29.45;;;;;;;;;;5007867;28;20417;-72
2021/12/06 01:00:12;;;;;;;48.20;29.50;;;;;;;;;;5008680;28;20443;-71
2021/12/06 01:02:38;;;;;;;46.60;29.30;;;;;;;;;;5011743;28;20419;-72
2021/12/06 01:05:05;;;;;;;49.67;29.75;;;;;;;;;;5027998;28;20488;-71
2021/12/06 01:07:31;;;;;;;50.65;30.05;;;;;;;;;;5027069;28;20419;-71
2021/12/06 01:09:57;;;;;;;48.97;29.15;;;;;;;;;;5028299;28;20446;-72
2021/12/06 01:12:24;;;;;;;49.00;29.30;;;;;;;;;;5029611;27;20882;-71
2021/12/06 01:14:50;;;;;;;50.92;31.38;;;;;;;;;;5027343;28;20427;-72
2021/12/06 01:17:16;;;;;;;55.20;31.83;;;;;;;;;;5028258;28;20522;-72
2021/12/06 01:19:42;;;;;;;53.72;31.58;;;;;;;;;;5027868;28;20823;-71
2021/12/06 01:24:42;;;;;;;54.38;31.08;;;;;;;;;;5027578;28;20451;-71
2021/12/06 01:32:35;;;;;;;54.72;31.33;;;;;;;;;;5027772;28;20824;-71
2021/12/06 01:40:47;;;;;;;65.63;35.90;;;;;;;;;;4951260;28;20958;-71
2021/12/06 01:43:13;;;;;;;66.00;36.22;;;;;;;;;;4993525;28;20453;-71
2021/12/06 01:45:39;;;;;;;67.72;37.35;;;;;;;;;;5010266;28;20475;-71
2021/12/06 01:48:05;;;;;;;71.65;37.03;;;;;;;;;;5027871;28;20450;-71
2021/12/06 01:50:32;;;;;;;67.97;36.40;;;;;;;;;;5028233;28;20427;-71
2021/12/06 01:52:59;;;;;;;69.18;36.08;;;;;;;;;;5027490;28;20480;-71
2021/12/06 01:55:26;;;;;;;71.35;37.20;;;;;;;;;;5026833;28;20779;-71
2021/12/06 01:57:53;;;;;;;68.05;36.42;;;;;;;;;;5011053;28;20475;-71
2021/12/06 02:00:22;;;;;;;68.07;36.53;;;;;;;;;;5025623;28;20610;-71
2021/12/06 02:02:48;;;;;;;68.18;36.13;;;;;;;;;;5022744;28;20509;-71
2021/12/06 02:05:15;;;;;;;70.38;37.20;;;;;;;;;;5006968;28;20424;-71
2021/12/06 02:07:41;;;;;;;70.47;37.72;;;;;;;;;;5006405;28;20428;-71
2021/12/06 02:10:08;;;;;;;64.93;35.78;;;;;;;;;;5007489;28;20421;-71
2021/12/06 02:12:34;;;;;;;67.70;36.30;;;;;;;;;;4990096;28;21096;-71
2021/12/06 02:15:14;;;;;;;70.47;35.63;;;;;;;;;;5007178;28;20424;-70
2021/12/06 02:17:51;;;;;;;69.03;34.58;;;;;;;;;;5000701;28;25095;-70
2021/12/06 02:20:25;;;;;;;63.63;35.58;;;;;;;;;;5007257;28;20718;-70
2021/12/06 02:22:51;;;;;;;67.25;35.63;;;;;;;;;;5005270;28;20420;-70
2021/12/06 02:25:18;;;;;;;66.28;35.78;;;;;;;;;;5006959;28;20432;-70
2021/12/06 02:27:45;;;;;;;65.43;34.28;;;;;;;;;;5006787;28;20501;-70
2021/12/06 02:30:11;;;;;;;67.80;34.67;;;;;;;;;;4990724;28;20431;-70
2021/12/06 02:32:38;;;;;;;64.85;33.17;;;;;;;;;;5006930;28;20447;-70
2021/12/06 02:35:05;;;;;;;66.20;34.10;;;;;;;;;;4990132;28;20432;-70
2021/12/06 02:37:33;;;;;;;67.53;34.83;;;;;;;;;;5006692;28;20798;-70
2021/12/06 02:40:01;;;;;;;69.88;34.22;;;;;;;;;;5001271;28;20417;-70
2021/12/06 02:42:27;;;;;;;70.82;35.47;;;;;;;;;;4990501;28;20518;-70
2021/12/06 02:44:53;;;;;;;67.38;34.47;;;;;;;;;;5006478;28;20960;-70
2021/12/06 02:47:20;;;;;;;66.15;34.55;;;;;;;;;;4972522;28;20434;-71
2021/12/06 02:49:47;;;;;;;72.97;36.05;;;;;;;;;;5006415;28;20423;-71
2021/12/06 02:52:14;;;;;;;70.40;35.17;;;;;;;;;;5006989;28;20447;-71
2021/12/06 02:54:42;;;;;;;76.80;37.15;;;;;;;;;;5006097;28;20417;-71
2021/12/06 02:59:37;;;;;;;74.85;35.75;;;;;;;;;;5007127;28;20436;-70
2021/12/06 03:02:05;;;;;;;71.70;36.27;;;;;;;;;;5006601;28;20468;-71
2021/12/06 03:04:31;;;;;;;73.70;37.05;;;;;;;;;;5028441;28;20525;-70
2021/12/06 03:06:59;;;;;;;72.72;36.20;;;;;;;;;;5027996;28;20979;-70
2021/12/06 03:09:27;;;;;;;73.47;37.55;;;;;;;;;;5047026;27;20474;-71
2021/12/06 03:11:55;;;;;;;77.33;36.90;;;;;;;;;;5029100;28;20426;-71
2021/12/06 03:14:23;;;;;;;75.50;37.33;;;;;;;;;;5028962;28;20478;-70
2021/12/06 03:16:50;;;;;;;80.30;37.92;;;;;;;;;;5030742;28;20519;-71
2021/12/06 03:19:16;;;;;;;78.72;37.67;;;;;;;;;;5029072;28;20940;-71
2021/12/06 03:21:42;;;;;;;81.40;37.67;;;;;;;;;;5029530;28;20417;-71
2021/12/06 03:24:08;;;;;;;81.75;38.90;;;;;;;;;;5012761;28;20421;-71
2021/12/06 03:26:35;;;;;;;78.30;37.28;;;;;;;;;;5029207;28;20509;-71
2021/12/06 03:29:01;;;;;;;83.53;38.95;;;;;;;;;;5029113;28;20465;-71
2021/12/06 03:31:28;;;;;;;83.03;38.73;;;;;;;;;;5021106;28;20708;-71
2021/12/06 03:33:55;;;;;;;83.53;39.30;;;;;;;;;;5028865;28;20914;-71
2021/12/06 03:36:23;;;;;;;133.65;43.67;;;;;;;;;;5028581;28;20486;-71
2021/12/06 03:38:49;;;;;;;79.50;38.50;;;;;;;;;;5029407;28;20421;-71
2021/12/06 03:41:16;;;;;;;77.95;38.00;;;;;;;;;;5011812;28;20417;-71
2021/12/06 03:43:44;;;;;;;82.25;37.75;;;;;;;;;;5029462;28;20982;-71
2021/12/06 03:46:11;;;;;;;84.28;39.83;;;;;;;;;;5045879;28;20475;-71
2021/12/06 03:48:37;;;;;;;79.03;38.60;;;;;;;;;;5029184;27;20416;-71
2021/12/06 03:51:03;;;;;;;82.20;38.15;;;;;;;;;;5027650;28;20422;-71
2021/12/06 03:53:30;;;;;;;82.33;38.33;;;;;;;;;;5027253;28;20513;-71
2021/12/06 03:55:56;;;;;;;75.05;36.25;;;;;;;;;;5028466;28;20425;-71
2021/12/06 03:58:22;;;;;;;71.63;36.90;;;;;;;;;;5028712;28;20463;-71
2021/12/06 04:00:49;;;;;;;72.32;36.13;;;;;;;;;;5046710;28;20409;-71
2021/12/06 04:03:16;;;;;;;73.45;35.85;;;;;;;;;;5029297;28;20421;-70
2021/12/06 04:05:42;;;;;;;72.05;37.63;;;;;;;;;;5036302;28;20432;-70
2021/12/06 04:08:08;;;;;;;73.25;36.25;;;;;;;;;;5029722;28;20446;-70
2021/12/06 04:10:34;;;;;;;159.98;42.50;;;;;;;;;;5028200;28;20417;-70
2021/12/06 04:13:00;;;;;;;71.05;34.28;;;;;;;;;;5012257;28;20826;-71
2021/12/06 04:15:29;;;;;;;66.27;34.17;;;;;;;;;;5024006;27;20512;-71
2021/12/06 04:17:56;;;;;;;73.15;34.85;;;;;;;;;;5031128;28;20425;-71
2021/12/06 04:20:22;;;;;;;70.88;34.85;;;;;;;;;;5032279;28;20466;-71
2021/12/06 04:22:48;;;;;;;66.20;34.15;;;;;;;;;;5015091;28;20428;-71
2021/12/06 04:25:16;;;;;;;64.15;33.10;;;;;;;;;;5031553;28;20417;-71
2021/12/06 04:27:43;;;;;;;65.97;34.80;;;;;;;;;;5030302;28;20559;-71
2021/12/06 04:30:10;;;;;;;71.32;33.53;;;;;;;;;;5032406;28;20451;-71
2021/12/06 04:32:37;;;;;;;64.47;33.65;;;;;;;;;;5015108;28;20931;-71
2021/12/06 04:35:03;;;;;;;64.07;34.30;;;;;;;;;;5048933;27;20473;-71
2021/12/06 04:37:29;;;;;;;66.33;33.83;;;;;;;;;;5031825;28;20481;-71
2021/12/06 04:39:55;;;;;;;88.75;34.40;;;;;;;;;;5030906;27;20436;-71
2021/12/06 04:42:22;;;;;;;84.50;34.03;;;;;;;;;;5031641;28;20433;-71
2021/12/06 04:44:48;;;;;;;68.05;32.83;;;;;;;;;;5031160;28;20432;-71
2021/12/06 04:47:14;;;;;;;69.20;34.65;;;;;;;;;;5049858;28;20461;-71
2021/12/06 04:49:40;;;;;;;70.38;34.33;;;;;;;;;;5031669;27;20460;-71
2021/12/06 04:52:08;;;;;;;71.60;34.03;;;;;;;;;;5031265;28;21034;-71
2021/12/06 04:54:35;;;;;;;69.32;33.42;;;;;;;;;;5049624;28;20407;-71
2021/12/06 04:57:10;;;;;;;67.75;33.60;;;;;;;;;;5030843;27;20925;-71
2021/12/06 04:59:41;;;;;;;69.30;33.72;;;;;;;;;;5035122;27;20465;-71
2021/12/06 05:02:12;;;;;;;67.00;32.90;;;;;;;;;;5031597;27;20423;-71
2021/12/06 05:04:41;;;;;;;73.47;34.85;;;;;;;;;;5031297;28;20465;-71
2021/12/06 05:07:12;;;;;;;73.17;34.33;;;;;;;;;;5030787;27;20513;-71
2021/12/06 05:09:40;;;;;;;69.35;34.13;;;;;;;;;;5031307;28;20425;-71
2021/12/06 05:12:07;;;;;;;71.22;34.10;;;;;;;;;;5030781;27;20417;-71
2021/12/06 05:14:33;;;;;;;71.13;34.30;;;;;;;;;;5031124;28;20431;-71
2021/12/06 05:16:59;;;;;;;73.97;33.72;;;;;;;;;;5014023;28;20418;-71
2021/12/06 05:19:25;;;;;;;75.60;36.05;;;;;;;;;;5031337;28;20504;-71
2021/12/06 05:21:52;;;;;;;73.32;35.60;;;;;;;;;;5031620;27;20432;-71
2021/12/06 05:24:19;;;;;;;73.30;34.78;;;;;;;;;;5012555;28;20489;-71
2021/12/06 05:26:45;;;;;;;72.03;35.83;;;;;;;;;;5014598;28;21189;-71
2021/12/06 05:29:13;;;;;;;74.20;36.80;;;;;;;;;;5062465;27;20439;-71
2021/12/06 05:31:40;;;;;;;77.63;35.15;;;;;;;;;;5031024;28;20424;-71
2021/12/06 05:34:13;;;;;;;77.55;36.90;;;;;;;;;;5030450;28;20449;-71
2021/12/06 05:36:39;;;;;;;101.88;38.88;;;;;;;;;;5030931;28;20421;-71
2021/12/06 05:39:06;;;;;;;75.75;35.40;;;;;;;;;;5024768;28;20417;-71
2021/12/06 05:41:36;;;;;;;82.43;37.23;;;;;;;;;;5049038;27;20409;-71
2021/12/06 05:44:03;;;;;;;165.05;42.85;;;;;;;;;;5029759;27;20444;-71
2021/12/06 05:46:29;;;;;;;87.47;38.42;;;;;;;;;;5013358;28;20423;-71
2021/12/06 05:48:55;;;;;;;96.05;38.17;;;;;;;;;;5030829;28;20494;-71
2021/12/06 05:51:21;;;;;;;90.68;37.15;;;;;;;;;;5014456;28;20752;-71
2021/12/06 05:53:47;;;;;;;85.47;36.90;;;;;;;;;;5047970;27;20425;-71
2021/12/06 05:56:13;;;;;;;82.55;36.30;;;;;;;;;;5030009;27;21142;-71
2021/12/06 05:58:39;;;;;;;458.90;63.03;;;;;;;;;;5030725;28;20464;-72
2021/12/06 06:01:06;;;;;;;248.43;47.08;;;;;;;;;;5030332;28;20497;-71
2021/12/06 06:03:32;;;;;;;623.30;79.72;;;;;;;;;;5030087;27;20457;-71
2021/12/06 06:05:58;;;;;;;143.38;41.65;;;;;;;;;;5030643;28;20811;-71
2021/12/06 06:08:25;;;;;;;91.70;40.97;;;;;;;;;;5030428;28;20424;-71
2021/12/06 06:10:51;;;;;;;341.33;61.30;;;;;;;;;;5048573;27;20417;-71
2021/12/06 06:13:19;;;;;;;106.57;41.70;;;;;;;;;;5029595;28;20425;-72
2021/12/06 06:15:45;;;;;;;180.20;48.03;;;;;;;;;;5029768;28;20530;-71
2021/12/06 06:18:11;;;;;;;97.60;41.03;;;;;;;;;;5030122;28;20916;-72
2021/12/06 06:20:42;;;;;;;103.63;43.47;;;;;;;;;;5028847;28;20551;-72
2021/12/06 06:23:09;;;;;;;101.68;41.30;;;;;;;;;;5048287;27;20546;-72
2021/12/06 06:25:35;;;;;;;101.65;43.15;;;;;;;;;;5029823;28;20428;-72
2021/12/06 06:28:01;;;;;;;213.90;48.05;;;;;;;;;;5013884;28;20818;-72
2021/12/06 06:30:28;;;;;;;224.23;52.00;;;;;;;;;;5028337;28;20444;-72
2021/12/06 06:32:54;;;;;;;133.02;44.38;;;;;;;;;;5009972;28;20568;-72
2021/12/06 06:35:21;;;;;;;99.03;42.63;;;;;;;;;;5030266;28;20462;-72
2021/12/06 06:37:47;;;;;;;97.57;41.65;;;;;;;;;;5029839;28;20417;-72
2021/12/06 06:40:13;;;;;;;143.80;42.88;;;;;;;;;;5011484;28;20420;-72
2021/12/06 06:42:39;;;;;;;98.25;42.58;;;;;;;;;;5028448;27;20464;-72
2021/12/06 06:45:06;;;;;;;101.63;42.50;;;;;;;;;;5029496;28;20418;-72
2021/12/06 06:47:32;;;;;;;95.57;40.90;;;;;;;;;;5029316;28;20562;-72
2021/12/06 06:49:58;;;;;;;146.05;46.95;;;;;;;;;;5029473;28;20421;-72
2021/12/06 06:52:24;;;;;;;123.47;43.30;;;;;;;;;;5028143;28;20414;-72
2021/12/06 06:54:51;;;;;;;167.93;44.75;;;;;;;;;;5047514;28;20487;-72
2021/12/06 06:57:17;;;;;;;105.97;41.20;;;;;;;;;;5046892;28;20424;-72
2021/12/06 06:59:45;;;;;;;240.15;49.92;;;;;;;;;;5029139;28;20818;-72
2021/12/06 07:02:12;;;;;;;218.18;46.80;;;;;;;;;;5028781;28;20451;-71
2021/12/06 07:04:38;;;;;;;102.00;39.72;;;;;;;;;;5026134;28;20509;-72
2021/12/06 07:07:04;;;;;;;120.07;42.53;;;;;;;;;;5029612;28;20429;-72
2021/12/06 07:09:30;;;;;;;93.03;39.73;;;;;;;;;;5028619;28;20594;-72
2021/12/06 07:11:58;;;;;;;146.20;43.58;;;;;;;;;;5032251;27;20417;-72
2021/12/06 07:14:24;;;;;;;113.32;44.35;;;;;;;;;;5046131;28;20856;-72
2021/12/06 07:16:51;;;;;;;102.75;39.75;;;;;;;;;;5046022;27;20512;-72
2021/12/06 07:19:17;;;;;;;94.80;39.63;;;;;;;;;;5029555;28;20508;-72
2021/12/06 07:21:43;;;;;;;118.63;41.13;;;;;;;;;;5013138;27;20477;-72
2021/12/06 07:24:10;;;;;;;137.10;43.60;;;;;;;;;;5022643;28;20432;-72
2021/12/06 07:26:36;;;;;;;154.10;42.08;;;;;;;;;;5010643;28;20433;-72
2021/12/06 07:29:02;;;;;;;98.85;40.17;;;;;;;;;;5038085;28;20422;-72
2021/12/06 07:31:29;;;;;;;96.18;39.13;;;;;;;;;;5029109;28;20765;-72
2021/12/06 07:33:55;;;;;;;97.72;40.30;;;;;;;;;;5028072;28;21004;-72
2021/12/06 07:36:22;;;;;;;126.78;41.50;;;;;;;;;;5047045;27;20944;-73
2021/12/06 07:38:50;;;;;;;95.47;39.60;;;;;;;;;;5028031;28;20425;-72
2021/12/06 07:41:18;;;;;;;95.50;38.90;;;;;;;;;;5028482;28;20452;-72
2021/12/06 07:43:45;;;;;;;98.93;40.22;;;;;;;;;;5037380;28;20488;-72
2021/12/06 07:46:11;;;;;;;95.50;39.00;;;;;;;;;;5029266;28;20437;-72
2021/12/06 07:48:37;;;;;;;117.70;41.40;;;;;;;;;;5071001;27;20880;-72
2021/12/06 07:51:05;;;;;;;100.43;39.95;;;;;;;;;;5013850;28;20516;-72
2021/12/06 07:53:32;;;;;;;94.40;38.13;;;;;;;;;;5034285;27;20455;-72
2021/12/06 07:55:58;;;;;;;238.10;50.08;;;;;;;;;;5033388;27;20430;-73
2021/12/06 07:58:25;;;;;;;202.43;46.67;;;;;;;;;;5035580;27;20843;-72
2021/12/06 08:00:52;;;;;;;145.90;42.07;;;;;;;;;;5034744;27;20936;-72
2021/12/06 08:03:22;;;;;;;97.47;38.22;;;;;;;;;;5037452;27;20466;-71
2021/12/06 08:05:49;;;;;;;137.90;39.42;;;;;;;;;;5036568;27;20433;-72
2021/12/06 08:08:18;;;;;;;289.02;55.00;;;;;;;;;;5035389;28;20413;-72
2021/12/06 08:10:46;;;;;;;115.35;38.60;;;;;;;;;;5035214;28;20421;-73
2021/12/06 08:13:20;;;;;;;91.15;36.78;;;;;;;;;;5034348;27;20425;-73
2021/12/06 08:15:46;;;;;;;91.22;38.58;;;;;;;;;;5034413;27;25144;-72
2021/12/06 08:18:13;;;;;;;186.48;44.05;;;;;;;;;;5034822;27;20429;-72
2021/12/06 08:20:41;;;;;;;87.65;37.00;;;;;;;;;;5001245;28;20418;-72
2021/12/06 08:23:07;;;;;;;84.13;35.92;;;;;;;;;;5034287;27;20429;-72
2021/12/06 08:25:34;;;;;;;81.03;33.15;;;;;;;;;;5033905;27;20506;-72
2021/12/06 08:28:00;;;;;;;188.80;43.23;;;;;;;;;;5034605;28;20421;-72
2021/12/06 08:30:27;;;;;;;472.95;67.22;;;;;;;;;;5034756;28;20424;-73
2021/12/06 08:32:55;;;;;;;80.32;33.88;;;;;;;;;;5034850;27;20444;-72
2021/12/06 08:35:21;;;;;;;78.63;34.33;;;;;;;;;;5035149;27;20425;-73
2021/12/06 08:37:47;;;;;;;83.43;34.13;;;;;;;;;;5031365;27;20425;-72
2021/12/06 08:40:14;;;;;;;93.25;36.60;;;;;;;;;;5029149;27;20462;-72
2021/12/06 08:42:41;;;;;;;77.72;34.92;;;;;;;;;;5032156;28;20436;-72
2021/12/06 08:45:08;;;;;;;83.57;37.63;;;;;;;;;;5039768;27;20417;-72
2021/12/06 08:47:34;;;;;;;74.30;35.70;;;;;;;;;;5031419;27;20971;-72
2021/12/06 08:50:00;;;;;;;78.25;34.53;;;;;;;;;;5116297;27;20449;-72
2021/12/06 08:52:27;;;;;;;83.85;33.15;;;;;;;;;;5035128;27;20417;-72
2021/12/06 08:54:53;;;;;;;99.90;34.17;;;;;;;;;;5034061;28;20527;-72
2021/12/06 08:57:19;;;;;;;115.85;34.53;;;;;;;;;;5033124;27;20422;-72
2021/12/06 08:59:46;;;;;;;83.63;39.22;;;;;;;;;;5019318;27;20461;-72
2021/12/06 09:02:12;;;;;;;419.17;65.43;;;;;;;;;;5033489;27;20421;-72
2021/12/06 09:04:39;;;;;;;87.25;40.08;;;;;;;;;;5030621;28;20498;-72
2021/12/06 09:07:12;;;;;;;78.10;34.85;;;;;;;;;;5030214;28;20844;-72
2021/12/06 09:09:49;;;;;;;73.63;36.30;;;;;;;;;;5027167;27;20482;-72
2021/12/06 09:12:20;;;;;;;62.80;32.00;;;;;;;;;;5030103;28;20512;-72
2021/12/06 09:14:47;;;;;;;62.15;30.90;;;;;;;;;;5016015;28;20434;-71
2021/12/06 09:17:13;;;;;;;164.85;40.17;;;;;;;;;;5030996;28;20417;-71
2021/12/06 09:19:40;;;;;;;115.55;37.85;;;;;;;;;;5027823;28;20453;-72
2021/12/06 09:22:06;;;;;;;72.40;33.63;;;;;;;;;;5027209;28;20418;-72
2021/12/06 09:24:33;;;;;;;68.05;32.53;;;;;;;;;;5004338;28;21045;-72
2021/12/06 09:27:00;;;;;;;65.00;30.55;;;;;;;;;;5021491;28;20437;-71
2021/12/06 09:29:26;;;;;;;96.28;32.33;;;;;;;;;;5029056;28;20929;-73
2021/12/06 09:31:53;;;;;;;57.08;28.30;;;;;;;;;;5116449;27;20417;-72
2021/12/06 09:34:19;;;;;;;61.60;29.75;;;;;;;;;;5024545;28;20987;-74
2021/12/06 09:36:46;;;;;;;62.60;29.90;;;;;;;;;;5112199;27;20410;-72
2021/12/06 09:39:13;;;;;;;75.78;30.40;;;;;;;;;;5026698;27;20425;-72
2021/12/06 09:41:39;;;;;;;119.80;33.38;;;;;;;;;;5076240;27;20437;-72
2021/12/06 09:44:06;;;;;;;61.47;29.50;;;;;;;;;;5030556;27;20430;-72
2021/12/06 09:46:36;;;;;;;62.15;30.10;;;;;;;;;;5032241;28;20444;-72
2021/12/06 09:49:07;;;;;;;65.28;30.38;;;;;;;;;;5029179;28;20425;-72
2021/12/06 09:51:34;;;;;;;65.55;31.60;;;;;;;;;;5031265;28;20441;-72
2021/12/06 09:54:00;;;;;;;61.25;29.80;;;;;;;;;;5008733;28;20433;-72
2021/12/06 09:56:28;;;;;;;57.53;27.73;;;;;;;;;;5025917;28;20489;-72
2021/12/06 09:58:55;;;;;;;56.03;28.23;;;;;;;;;;5025758;28;20509;-72
2021/12/06 10:01:24;;;;;;;56.93;27.43;;;;;;;;;;5026991;28;20483;-72
2021/12/06 10:03:51;;;;;;;58.40;28.08;;;;;;;;;;5010286;28;20477;-72
2021/12/06 10:06:17;;;;;;;76.22;29.92;;;;;;;;;;5026825;28;20448;-72
2021/12/06 10:08:44;;;;;;;64.82;30.10;;;;;;;;;;5057345;27;20419;-72
2021/12/06 10:11:12;;;;;;;64.97;32.33;;;;;;;;;;5026972;28;20424;-72
2021/12/06 10:13:39;;;;;;;63.03;31.05;;;;;;;;;;5027641;28;20413;-72
2021/12/06 10:16:06;;;;;;;64.60;31.27;;;;;;;;;;5027987;27;20429;-71
2021/12/06 10:18:32;;;;;;;69.07;30.88;;;;;;;;;;5007861;28;20901;-72
2021/12/06 10:20:58;;;;;;;67.28;32.97;;;;;;;;;;5032893;27;20833;-72
2021/12/06 10:23:24;;;;;;;72.93;35.53;;;;;;;;;;5030508;28;20433;-72
2021/12/06 10:25:52;;;;;;;79.15;37.20;;;;;;;;;;5033300;27;20478;-72
2021/12/06 10:28:19;;;;;;;83.43;37.73;;;;;;;;;;5013111;28;20417;-72
2021/12/06 10:30:47;;;;;;;76.88;35.67;;;;;;;;;;5026529;27;20496;-72
2021/12/06 10:33:14;;;;;;;106.65;38.08;;;;;;;;;;5023322;28;20479;-72
2021/12/06 10:35:45;;;;;;;88.03;39.70;;;;;;;;;;5056074;27;20471;-71
2021/12/06 10:38:13;;;;;;;98.10;43.28;;;;;;;;;;5078995;27;20428;-72
2021/12/06 10:40:40;;;;;;;94.18;41.20;;;;;;;;;;5058046;27;20421;-72
2021/12/06 10:43:08;;;;;;;275.38;55.00;;;;;;;;;;5076943;27;20482;-72
2021/12/06 10:45:36;;;;;;;80.97;38.28;;;;;;;;;;5031010;27;20445;-72
2021/12/06 10:48:11;;;;;;;75.63;36.53;;;;;;;;;;5023524;28;20452;-72
2021/12/06 10:50:39;;;;;;;94.00;36.67;;;;;;;;;;5021949;28;20836;-72
2021/12/06 10:53:06;;;;;;;88.07;36.13;;;;;;;;;;5027146;28;20432;-72
2021/12/06 10:55:33;;;;;;;98.78;37.15;;;;;;;;;;5027702;28;20428;-72
2021/12/06 10:58:03;;;;;;;68.20;32.07;;;;;;;;;;5046423;27;20434;-72
2021/12/06 11:00:41;;;;;;;94.03;33.60;;;;;;;;;;5026010;28;20988;-72
2021/12/06 11:03:23;;;;;;;62.40;31.60;;;;;;;;;;5025104;28;20418;-72
2021/12/06 11:05:50;;;;;;;91.47;32.67;;;;;;;;;;5021399;28;20436;-72
2021/12/06 11:08:18;;;;;;;65.55;32.35;;;;;;;;;;5084246;27;20756;-72
2021/12/06 11:10:46;;;;;;;68.88;31.10;;;;;;;;;;5024563;27;20421;-72
2021/12/06 11:13:23;;;;;;;57.45;29.55;;;;;;;;;;5006739;27;20518;-72
2021/12/06 11:15:58;;;;;;;103.10;32.53;;;;;;;;;;5026767;28;20421;-72
2021/12/06 11:18:30;;;;;;;51.47;27.43;;;;;;;;;;5019432;28;20614;-72
2021/12/06 11:20:57;;;;;;;49.55;25.63;;;;;;;;;;5039002;27;20500;-72
2021/12/06 11:23:23;;;;;;;47.15;25.98;;;;;;;;;;5101714;27;20429;-71
2021/12/06 11:26:01;;;;;;;42.22;22.35;;;;;;;;;;5022164;28;20417;-71
2021/12/06 11:28:29;;;;;;;39.58;21.90;;;;;;;;;;5022913;27;20960;-72
2021/12/06 11:31:05;;;;;;;41.65;22.60;;;;;;;;;;5022143;28;22719;-72
2021/12/06 11:33:34;;;;;;;44.85;22.60;;;;;;;;;;5045691;27;20557;-72
2021/12/06 11:36:01;;;;;;;42.17;22.63;;;;;;;;;;5009733;28;20427;-72
2021/12/06 11:38:28;;;;;;;41.50;23.23;;;;;;;;;;5028022;28;20426;-72
2021/12/06 11:40:58;;;;;;;43.83;22.65;;;;;;;;;;5024373;28;20502;-72
2021/12/06 11:43:25;;;;;;;60.60;23.90;;;;;;;;;;5028662;28;20425;-72
2021/12/06 11:45:57;;;;;;;42.35;22.85;;;;;;;;;;5043761;27;20434;-72
2021/12/06 11:48:41;;;;;;;42.92;23.23;;;;;;;;;;5053428;27;20916;-72
2021/12/06 11:51:09;;;;;;;48.85;24.02;;;;;;;;;;5023483;28;21311;-72
2021/12/06 11:53:46;;;;;;;42.70;22.60;;;;;;;;;;5010124;28;20537;-72
2021/12/06 11:56:33;;;;;;;44.38;23.75;;;;;;;;;;5037229;27;20783;-72
2021/12/06 11:59:06;;;;;;;41.00;22.73;;;;;;;;;;5053927;27;20449;-72
2021/12/06 12:01:32;;;;;;;47.03;24.25;;;;;;;;;;5025344;28;20429;-72
2021/12/06 12:04:01;;;;;;;52.72;24.25;;;;;;;;;;5017054;28;20952;-72
2021/12/06 12:06:30;;;;;;;46.40;24.67;;;;;;;;;;5011034;28;20429;-71
2021/12/06 12:09:08;;;;;;;49.47;24.65;;;;;;;;;;5003628;28;20422;-72
2021/12/06 12:11:57;;;;;;;52.17;25.95;;;;;;;;;;4988029;28;20528;-72
2021/12/06 12:14:28;;;;;;;63.97;28.17;;;;;;;;;;4998189;28;20420;-72
2021/12/06 12:16:54;;;;;;;55.83;27.17;;;;;;;;;;5003713;28;20424;-72
2021/12/06 12:19:20;;;;;;;55.75;27.02;;;;;;;;;;5001759;28;20448;-72
2021/12/06 12:21:47;;;;;;;60.08;28.98;;;;;;;;;;5004714;28;20429;-72
2021/12/06 12:24:13;;;;;;;69.72;29.75;;;;;;;;;;5004051;28;20482;-73
2021/12/06 12:26:53;;;;;;;65.75;28.30;;;;;;;;;;5005732;28;20462;-72
2021/12/06 12:29:25;;;;;;;69.22;29.52;;;;;;;;;;4987043;28;20429;-73
2021/12/06 12:31:55;;;;;;;68.13;29.60;;;;;;;;;;5077546;28;20417;-73
2021/12/06 12:34:22;;;;;;;68.10;30.23;;;;;;;;;;5004140;28;20447;-72
2021/12/06 12:36:48;;;;;;;68.90;30.00;;;;;;;;;;4979075;28;20425;-72
2021/12/06 12:39:16;;;;;;;67.97;30.30;;;;;;;;;;5017273;28;20443;-72
2021/12/06 12:41:48;;;;;;;73.57;32.08;;;;;;;;;;5007235;28;20652;-72
2021/12/06 12:44:14;;;;;;;66.57;30.30;;;;;;;;;;5002687;28;20511;-72
2021/12/06 12:46:42;;;;;;;74.07;30.80;;;;;;;;;;5006070;28;20440;-73
2021/12/06 12:49:38;;;;;;;127.60;34.85;;;;;;;;;;5006625;28;20440;-72
2021/12/06 12:52:04;;;;;;;69.28;30.80;;;;;;;;;;5023363;28;20420;-72
2021/12/06 12:54:31;;;;;;;67.03;30.48;;;;;;;;;;5005298;28;20493;-72
2021/12/06 12:57:12;;;;;;;70.82;31.65;;;;;;;;;;5004735;28;20943;-72
2021/12/06 12:59:46;;;;;;;134.32;35.05;;;;;;;;;;5003081;28;20420;-72
2021/12/06 13:02:38;;;;;;;71.67;35.40;;;3.20;99.90;;;;;;5005025;28;20519;-72
2021/12/06 13:05:07;;;;;;;78.18;34.42;;;;;;;;;;5009398;28;20489;-72
2021/12/06 13:07:41;;;;;;;73.68;33.22;;;;;;;;;;5020856;27;20462;-72
2021/12/06 13:10:29;;;;;;;78.13;34.53;;;;;;;;;;5059658;28;20438;-71
2021/12/06 13:12:57;;;;;;;74.07;33.97;;;;;;;;;;5023862;28;22795;-72
2021/12/06 13:15:33;;;;;;;76.30;33.58;;;;;;;;;;5026360;28;20495;-72
2021/12/06 13:18:00;;;;;;;69.65;33.40;;;;;;;;;;5059100;27;20510;-72
2021/12/06 13:20:26;;;;;;;69.85;32.83;;;;;;;;;;5024849;27;20419;-72
2021/12/06 13:22:54;;;;;;;69.75;33.40;;;;;;;;;;5019221;28;20455;-73
2021/12/06 13:25:21;;;;;;;72.07;33.05;;;;;;;;;;5025786;27;20415;-72
2021/12/06 13:28:07;;;;;;;73.22;34.17;;;;;;;;;;5057665;27;20423;-72
2021/12/06 13:30:41;;;;;;;107.75;36.15;;;;;;;;;;5022397;28;20544;-72
2021/12/06 13:33:12;;;;;;;69.28;32.78;;;;;;;;;;5021323;28;22340;-72
2021/12/06 13:35:47;;;;;;;71.80;33.72;;;;;;;;;;5025603;28;20427;-72
2021/12/06 13:38:19;;;;;;;68.93;31.40;;;;;;;;;;5018045;28;20853;-73
2021/12/06 13:41:03;;;;;;;72.90;33.22;;;;;;;;;;5022084;27;20423;-73
2021/12/06 13:43:29;;;;;;;74.18;33.63;;;;;;;;;;5017131;28;20426;-72
2021/12/06 13:46:20;;;;;;;68.78;32.72;;;3.40;99.90;;;;;;5021871;28;20427;-72
2021/12/06 13:48:47;;;;;;;79.55;36.75;;;;;;;;;;5005953;28;20416;-73
2021/12/06 13:51:33;;;;;;;78.85;36.92;;;;;;;;;;5038248;28;20438;-72
2021/12/06 13:54:03;;;;;;;87.25;37.40;;;;;;;;;;5015195;28;20427;-72
2021/12/06 13:56:40;;;;;;;83.53;35.87;;;;;;;;;;5016568;28;20455;-72
2021/12/06 13:59:06;;;;;;;82.13;36.20;;;;;;;;;;5018655;28;20472;-72
2021/12/06 14:01:38;;;;;;;96.63;37.22;;;;;;;;;;5016247;28;20437;-72
2021/12/06 14:04:05;;;;;;;91.07;43.42;;;;;;;;;;5017254;28;20435;-72
2021/12/06 14:06:41;;;;;;;89.43;42.35;;;;;;;;;;5016934;28;22113;-72
2021/12/06 14:09:07;;;;;;;81.30;37.70;;;;;;;;;;5015823;28;20425;-72
2021/12/06 14:11:33;;;;;;;89.65;36.65;;;;;;;;;;5022136;28;20842;-73
2021/12/06 14:14:01;;;;;;;78.63;35.40;;;;;;;;;;5025257;28;20476;-73
2021/12/06 14:16:33;;;;;;;79.25;35.08;;;;;;;;;;5025591;28;20506;-73
2021/12/06 14:18:59;;;;;;;81.55;36.15;;;;;;;;;;5030905;27;20938;-73
2021/12/06 14:21:25;;;;;;;84.30;36.75;;;;;;;;;;5022202;28;20506;-73
2021/12/06 14:23:51;;;;;;;77.97;36.50;;;;;;;;;;5023565;28;20426;-73
2021/12/06 14:26:17;;;;;;;78.18;36.80;;;;;;;;;;5019795;28;20933;-72
2021/12/06 14:28:47;;;;;;;78.47;35.47;;;;;;;;;;5024033;28;20459;-73
2021/12/06 14:31:14;;;;;;;87.60;39.20;;;;;;;;;;5037925;27;21229;-73
2021/12/06 14:33:40;;;;;;;92.22;39.25;;;;;;;;;;5036110;28;20451;-73
2021/12/06 14:36:07;;;;;;;82.23;37.27;;;;;;;;;;5002794;28;20424;-73